sensor_id;sensor_type;location;lat;lon;timestamp;temperature;humidity
60287;DHT22;46141;52.382;5.270;2022-07-23T00:01:35;23.70;64.60
60287;DHT22;46141;52.382;5.270;2022-07-23T00:04:00;23.80;64.70
60287;DHT22;46141;52.382;5.270;2022-07-23T00:06:26;23.70;64.60
60287;DHT22;46141;52.382;5.270;2022-07-23T00:08:52;23.70;64.60
60287;DHT22;46141;52.382;5.270;2022-07-23T00:11:18;23.70;64.60
60287;DHT22;46141;52.382;5.270;2022-07-23T00:13:44;23.80;64.70
60287;DHT22;46141;52.382;5.270;2022-07-23T00:16:09;23.70;64.80
60287;DHT22;46141;52.382;5.270;2022-07-23T00:18:35;23.70;64.60
60287;DHT22;46141;52.382;5.270;2022-07-23T00:21:01;23.70;64.80
60287;DHT22;46141;52.382;5.270;2022-07-23T00:23:26;23.80;64.70
60287;DHT22;46141;52.382;5.270;2022-07-23T00:25:52;23.70;64.70
60287;DHT22;46141;52.382;5.270;2022-07-23T00:28:18;23.70;64.70
60287;DHT22;46141;52.382;5.270;2022-07-23T00:30:44;23.70;64.70
60287;DHT22;46141;52.382;5.270;2022-07-23T00:33:09;23.80;64.80
60287;DHT22;46141;52.382;5.270;2022-07-23T00:35:38;23.70;64.60
60287;DHT22;46141;52.382;5.270;2022-07-23T00:38:04;23.70;64.50
60287;DHT22;46141;52.382;5.270;2022-07-23T00:40:30;23.70;64.70
60287;DHT22;46141;52.382;5.270;2022-07-23T00:42:56;23.70;64.90
60287;DHT22;46141;52.382;5.270;2022-07-23T00:45:22;23.70;64.70
60287;DHT22;46141;52.382;5.270;2022-07-23T00:47:48;23.70;64.70
60287;DHT22;46141;52.382;5.270;2022-07-23T00:50:14;23.70;64.80
60287;DHT22;46141;52.382;5.270;2022-07-23T00:52:40;23.70;64.70
60287;DHT22;46141;52.382;5.270;2022-07-23T00:55:07;23.70;64.80
60287;DHT22;46141;52.382;5.270;2022-07-23T00:57:34;23.70;64.80
60287;DHT22;46141;52.382;5.270;2022-07-23T00:59:59;23.70;64.90
60287;DHT22;46141;52.382;5.270;2022-07-23T01:02:26;23.60;64.90
60287;DHT22;46141;52.382;5.270;2022-07-23T01:04:52;23.70;65.00
60287;DHT22;46141;52.382;5.270;2022-07-23T01:07:18;23.70;65.00
60287;DHT22;46141;52.382;5.270;2022-07-23T01:09:45;23.70;65.00
60287;DHT22;46141;52.382;5.270;2022-07-23T01:12:11;23.70;65.00
60287;DHT22;46141;52.382;5.270;2022-07-23T01:14:37;23.60;65.60
60287;DHT22;46141;52.382;5.270;2022-07-23T01:17:03;23.70;65.10
60287;DHT22;46141;52.382;5.270;2022-07-23T01:19:29;23.70;65.00
60287;DHT22;46141;52.382;5.270;2022-07-23T01:21:57;23.60;65.00
60287;DHT22;46141;52.382;5.270;2022-07-23T01:24:23;23.70;65.10
60287;DHT22;46141;52.382;5.270;2022-07-23T01:26:49;23.70;65.10
60287;DHT22;46141;52.382;5.270;2022-07-23T01:29:15;23.60;65.10
60287;DHT22;46141;52.382;5.270;2022-07-23T01:31:42;23.60;65.20
60287;DHT22;46141;52.382;5.270;2022-07-23T01:34:08;23.60;65.20
60287;DHT22;46141;52.382;5.270;2022-07-23T01:36:35;23.60;65.10
60287;DHT22;46141;52.382;5.270;2022-07-23T01:39:01;23.60;65.20
60287;DHT22;46141;52.382;5.270;2022-07-23T01:41:27;23.60;65.20
60287;DHT22;46141;52.382;5.270;2022-07-23T01:43:53;23.60;65.30
60287;DHT22;46141;52.382;5.270;2022-07-23T01:46:18;23.60;65.30
60287;DHT22;46141;52.382;5.270;2022-07-23T01:48:44;23.60;65.30
60287;DHT22;46141;52.382;5.270;2022-07-23T01:51:09;23.60;65.20
60287;DHT22;46141;52.382;5.270;2022-07-23T01:53:35;23.60;65.40
60287;DHT22;46141;52.382;5.270;2022-07-23T01:56:01;23.60;65.40
60287;DHT22;46141;52.382;5.270;2022-07-23T01:58:27;23.60;65.00
60287;DHT22;46141;52.382;5.270;2022-07-23T02:00:53;23.60;65.50
60287;DHT22;46141;52.382;5.270;2022-07-23T02:03:19;23.60;65.60
60287;DHT22;46141;52.382;5.270;2022-07-23T02:05:45;23.60;65.50
60287;DHT22;46141;52.382;5.270;2022-07-23T02:08:10;23.60;65.40
60287;DHT22;46141;52.382;5.270;2022-07-23T02:10:36;23.60;65.30
60287;DHT22;46141;52.382;5.270;2022-07-23T02:13:01;23.60;65.30
60287;DHT22;46141;52.382;5.270;2022-07-23T02:15:27;23.60;65.30
60287;DHT22;46141;52.382;5.270;2022-07-23T02:17:53;23.60;65.20
60287;DHT22;46141;52.382;5.270;2022-07-23T02:20:18;23.60;65.20
60287;DHT22;46141;52.382;5.270;2022-07-23T02:22:44;23.60;65.20
60287;DHT22;46141;52.382;5.270;2022-07-23T02:25:09;23.60;65.20
60287;DHT22;46141;52.382;5.270;2022-07-23T02:27:35;23.60;65.20
60287;DHT22;46141;52.382;5.270;2022-07-23T02:30:02;23.60;65.80
60287;DHT22;46141;52.382;5.270;2022-07-23T02:32:28;23.60;65.10
60287;DHT22;46141;52.382;5.270;2022-07-23T02:34:53;23.60;65.10
60287;DHT22;46141;52.382;5.270;2022-07-23T02:37:19;23.60;65.10
60287;DHT22;46141;52.382;5.270;2022-07-23T02:39:44;23.60;65.10
60287;DHT22;46141;52.382;5.270;2022-07-23T02:42:10;23.50;65.00
60287;DHT22;46141;52.382;5.270;2022-07-23T02:44:36;23.50;65.00
60287;DHT22;46141;52.382;5.270;2022-07-23T02:47:01;23.50;65.60
60287;DHT22;46141;52.382;5.270;2022-07-23T02:49:27;23.50;65.00
60287;DHT22;46141;52.382;5.270;2022-07-23T02:51:53;23.50;65.00
60287;DHT22;46141;52.382;5.270;2022-07-23T02:54:19;23.50;65.00
60287;DHT22;46141;52.382;5.270;2022-07-23T02:56:44;23.50;65.00
60287;DHT22;46141;52.382;5.270;2022-07-23T02:59:10;23.50;64.90
60287;DHT22;46141;52.382;5.270;2022-07-23T03:01:35;23.50;65.00
60287;DHT22;46141;52.382;5.270;2022-07-23T03:04:01;23.50;65.00
60287;DHT22;46141;52.382;5.270;2022-07-23T03:06:26;23.50;64.90
60287;DHT22;46141;52.382;5.270;2022-07-23T03:08:52;23.40;64.80
60287;DHT22;46141;52.382;5.270;2022-07-23T03:11:17;23.50;64.90
60287;DHT22;46141;52.382;5.270;2022-07-23T03:13:43;23.40;64.80
60287;DHT22;46141;52.382;5.270;2022-07-23T03:16:09;23.40;64.90
60287;DHT22;46141;52.382;5.270;2022-07-23T03:18:35;23.50;64.80
60287;DHT22;46141;52.382;5.270;2022-07-23T03:21:01;23.50;64.80
60287;DHT22;46141;52.382;5.270;2022-07-23T03:23:26;23.40;64.80
60287;DHT22;46141;52.382;5.270;2022-07-23T03:25:52;23.40;64.80
60287;DHT22;46141;52.382;5.270;2022-07-23T03:28:18;23.40;64.80
60287;DHT22;46141;52.382;5.270;2022-07-23T03:30:45;23.40;64.70
60287;DHT22;46141;52.382;5.270;2022-07-23T03:33:11;23.40;64.80
60287;DHT22;46141;52.382;5.270;2022-07-23T03:35:37;23.40;64.80
60287;DHT22;46141;52.382;5.270;2022-07-23T03:38:04;23.50;64.80
60287;DHT22;46141;52.382;5.270;2022-07-23T03:40:29;23.40;64.80
60287;DHT22;46141;52.382;5.270;2022-07-23T03:42:55;23.40;64.80
60287;DHT22;46141;52.382;5.270;2022-07-23T03:45:20;23.40;64.70
60287;DHT22;46141;52.382;5.270;2022-07-23T03:47:46;23.40;64.70
60287;DHT22;46141;52.382;5.270;2022-07-23T03:50:11;23.40;64.70
60287;DHT22;46141;52.382;5.270;2022-07-23T03:52:37;23.40;64.70
60287;DHT22;46141;52.382;5.270;2022-07-23T03:55:03;23.40;64.70
60287;DHT22;46141;52.382;5.270;2022-07-23T03:57:29;23.40;64.80
60287;DHT22;46141;52.382;5.270;2022-07-23T03:59:55;23.40;64.70
60287;DHT22;46141;52.382;5.270;2022-07-23T04:02:20;23.40;64.80
60287;DHT22;46141;52.382;5.270;2022-07-23T04:04:46;23.40;64.60
60287;DHT22;46141;52.382;5.270;2022-07-23T04:07:11;23.30;64.60
60287;DHT22;46141;52.382;5.270;2022-07-23T04:09:37;23.40;64.40
60287;DHT22;46141;52.382;5.270;2022-07-23T04:12:02;23.40;64.70
60287;DHT22;46141;52.382;5.270;2022-07-23T04:14:28;23.40;64.60
60287;DHT22;46141;52.382;5.270;2022-07-23T04:16:53;23.40;64.70
60287;DHT22;46141;52.382;5.270;2022-07-23T04:19:19;23.40;64.60
60287;DHT22;46141;52.382;5.270;2022-07-23T04:21:44;23.30;65.20
60287;DHT22;46141;52.382;5.270;2022-07-23T04:24:10;23.40;64.60
60287;DHT22;46141;52.382;5.270;2022-07-23T04:26:35;23.30;64.50
60287;DHT22;46141;52.382;5.270;2022-07-23T04:29:01;23.30;64.50
60287;DHT22;46141;52.382;5.270;2022-07-23T04:31:26;23.30;64.50
60287;DHT22;46141;52.382;5.270;2022-07-23T04:33:52;23.30;64.50
60287;DHT22;46141;52.382;5.270;2022-07-23T04:36:17;23.30;64.20
60287;DHT22;46141;52.382;5.270;2022-07-23T04:38:43;23.30;64.50
60287;DHT22;46141;52.382;5.270;2022-07-23T04:41:09;23.30;64.40
60287;DHT22;46141;52.382;5.270;2022-07-23T04:43:34;23.30;64.50
60287;DHT22;46141;52.382;5.270;2022-07-23T04:45:59;23.30;64.40
60287;DHT22;46141;52.382;5.270;2022-07-23T04:48:25;23.30;64.40
60287;DHT22;46141;52.382;5.270;2022-07-23T04:50:50;23.30;64.40
60287;DHT22;46141;52.382;5.270;2022-07-23T04:53:16;23.30;64.40
60287;DHT22;46141;52.382;5.270;2022-07-23T04:55:41;23.30;64.40
60287;DHT22;46141;52.382;5.270;2022-07-23T04:58:07;23.30;64.40
60287;DHT22;46141;52.382;5.270;2022-07-23T05:00:32;23.30;64.40
60287;DHT22;46141;52.382;5.270;2022-07-23T05:02:58;23.30;64.40
60287;DHT22;46141;52.382;5.270;2022-07-23T05:05:23;23.30;64.30
60287;DHT22;46141;52.382;5.270;2022-07-23T05:07:49;23.30;64.40
60287;DHT22;46141;52.382;5.270;2022-07-23T05:10:14;23.30;64.40
60287;DHT22;46141;52.382;5.270;2022-07-23T05:12:40;23.30;64.40
60287;DHT22;46141;52.382;5.270;2022-07-23T05:15:06;23.30;64.30
60287;DHT22;46141;52.382;5.270;2022-07-23T05:17:31;23.30;64.40
60287;DHT22;46141;52.382;5.270;2022-07-23T05:19:57;23.30;64.40
60287;DHT22;46141;52.382;5.270;2022-07-23T05:22:22;23.30;64.30
60287;DHT22;46141;52.382;5.270;2022-07-23T05:24:48;23.30;64.30
60287;DHT22;46141;52.382;5.270;2022-07-23T05:27:13;23.30;64.30
60287;DHT22;46141;52.382;5.270;2022-07-23T05:29:39;23.30;64.20
60287;DHT22;46141;52.382;5.270;2022-07-23T05:32:04;23.30;64.40
60287;DHT22;46141;52.382;5.270;2022-07-23T05:34:30;23.30;64.60
60287;DHT22;46141;52.382;5.270;2022-07-23T05:36:56;23.20;64.50
60287;DHT22;46141;52.382;5.270;2022-07-23T05:39:21;23.20;64.50
60287;DHT22;46141;52.382;5.270;2022-07-23T05:41:47;23.30;64.60
60287;DHT22;46141;52.382;5.270;2022-07-23T05:44:12;23.30;64.40
60287;DHT22;46141;52.382;5.270;2022-07-23T05:46:38;23.30;64.60
60287;DHT22;46141;52.382;5.270;2022-07-23T05:49:03;23.20;64.70
60287;DHT22;46141;52.382;5.270;2022-07-23T05:51:29;23.20;64.70
60287;DHT22;46141;52.382;5.270;2022-07-23T05:53:54;23.20;65.40
60287;DHT22;46141;52.382;5.270;2022-07-23T05:56:20;23.20;64.80
60287;DHT22;46141;52.382;5.270;2022-07-23T05:58:45;23.20;64.80
60287;DHT22;46141;52.382;5.270;2022-07-23T06:01:11;23.20;64.80
60287;DHT22;46141;52.382;5.270;2022-07-23T06:03:36;23.20;64.70
60287;DHT22;46141;52.382;5.270;2022-07-23T06:06:02;23.20;64.50
60287;DHT22;46141;52.382;5.270;2022-07-23T06:08:27;23.20;64.70
60287;DHT22;46141;52.382;5.270;2022-07-23T06:10:53;23.20;64.50
60287;DHT22;46141;52.382;5.270;2022-07-23T06:13:19;23.20;64.50
60287;DHT22;46141;52.382;5.270;2022-07-23T06:15:44;23.30;64.70
60287;DHT22;46141;52.382;5.270;2022-07-23T06:18:10;23.30;64.50
60287;DHT22;46141;52.382;5.270;2022-07-23T06:20:35;23.30;64.70
60287;DHT22;46141;52.382;5.270;2022-07-23T06:23:01;23.30;64.60
60287;DHT22;46141;52.382;5.270;2022-07-23T06:25:27;23.30;64.50
60287;DHT22;46141;52.382;5.270;2022-07-23T06:27:52;23.30;64.40
60287;DHT22;46141;52.382;5.270;2022-07-23T06:30:18;23.30;64.40
60287;DHT22;46141;52.382;5.270;2022-07-23T06:32:43;23.30;64.30
60287;DHT22;46141;52.382;5.270;2022-07-23T06:35:09;23.40;64.40
60287;DHT22;46141;52.382;5.270;2022-07-23T06:37:34;23.40;64.20
60287;DHT22;46141;52.382;5.270;2022-07-23T06:40:00;23.40;64.40
60287;DHT22;46141;52.382;5.270;2022-07-23T06:42:25;23.40;65.00
60287;DHT22;46141;52.382;5.270;2022-07-23T06:44:51;23.40;64.20
60287;DHT22;46141;52.382;5.270;2022-07-23T06:47:16;23.40;64.20
60287;DHT22;46141;52.382;5.270;2022-07-23T06:49:42;23.40;64.10
60287;DHT22;46141;52.382;5.270;2022-07-23T06:52:08;23.40;64.00
60287;DHT22;46141;52.382;5.270;2022-07-23T06:54:34;23.40;64.20
60287;DHT22;46141;52.382;5.270;2022-07-23T06:56:59;23.40;64.40
60287;DHT22;46141;52.382;5.270;2022-07-23T06:59:25;23.50;64.40
60287;DHT22;46141;52.382;5.270;2022-07-23T07:01:50;23.50;64.40
60287;DHT22;46141;52.382;5.270;2022-07-23T07:04:16;23.50;64.10
60287;DHT22;46141;52.382;5.270;2022-07-23T07:06:41;23.50;64.10
60287;DHT22;46141;52.382;5.270;2022-07-23T07:09:07;23.50;64.10
60287;DHT22;46141;52.382;5.270;2022-07-23T07:11:32;23.60;64.00
60287;DHT22;46141;52.382;5.270;2022-07-23T07:13:58;23.50;63.10
60287;DHT22;46141;52.382;5.270;2022-07-23T07:16:23;23.50;62.40
60287;DHT22;46141;52.382;5.270;2022-07-23T07:18:49;23.40;61.70
60287;DHT22;46141;52.382;5.270;2022-07-23T07:21:14;23.40;62.30
60287;DHT22;46141;52.382;5.270;2022-07-23T07:23:40;23.40;61.80
60287;DHT22;46141;52.382;5.270;2022-07-23T07:26:05;23.40;61.70
60287;DHT22;46141;52.382;5.270;2022-07-23T07:28:31;23.40;61.80
60287;DHT22;46141;52.382;5.270;2022-07-23T07:30:57;23.30;61.90
60287;DHT22;46141;52.382;5.270;2022-07-23T07:33:22;23.30;61.70
60287;DHT22;46141;52.382;5.270;2022-07-23T07:38:15;23.30;61.70
60287;DHT22;46141;52.382;5.270;2022-07-23T07:40:41;23.10;65.30
60287;DHT22;46141;52.382;5.270;2022-07-23T11:34:45;24.40;58.50
60287;DHT22;46141;52.382;5.270;2022-07-23T11:37:26;24.40;58.50
60287;DHT22;46141;52.382;5.270;2022-07-23T11:39:55;24.40;58.00
60287;DHT22;46141;52.382;5.270;2022-07-23T11:42:21;24.40;58.60
60287;DHT22;46141;52.382;5.270;2022-07-23T11:44:47;24.50;58.00
60287;DHT22;46141;52.382;5.270;2022-07-23T11:47:13;24.40;57.80
60287;DHT22;46141;52.382;5.270;2022-07-23T11:49:38;24.50;57.80
60287;DHT22;46141;52.382;5.270;2022-07-23T11:52:09;24.40;57.50
60287;DHT22;46141;52.382;5.270;2022-07-23T11:54:46;24.50;57.70
60287;DHT22;46141;52.382;5.270;2022-07-23T11:57:12;24.40;57.70
60287;DHT22;46141;52.382;5.270;2022-07-23T11:59:39;24.40;58.10
60287;DHT22;46141;52.382;5.270;2022-07-23T12:02:06;24.50;57.90
60287;DHT22;46141;52.382;5.270;2022-07-23T12:04:44;24.60;58.10
60287;DHT22;46141;52.382;5.270;2022-07-23T12:07:43;24.60;58.40
60287;DHT22;46141;52.382;5.270;2022-07-23T12:10:24;24.70;58.30
60287;DHT22;46141;52.382;5.270;2022-07-23T12:12:51;24.70;58.60
60287;DHT22;46141;52.382;5.270;2022-07-23T12:15:20;24.70;58.80
60287;DHT22;46141;52.382;5.270;2022-07-23T12:17:47;24.70;58.40
60287;DHT22;46141;52.382;5.270;2022-07-23T12:20:16;24.70;58.00
60287;DHT22;46141;52.382;5.270;2022-07-23T12:22:45;24.80;58.30
60287;DHT22;46141;52.382;5.270;2022-07-23T12:25:14;24.80;58.30
60287;DHT22;46141;52.382;5.270;2022-07-23T12:27:41;24.80;58.70
60287;DHT22;46141;52.382;5.270;2022-07-23T12:30:25;24.80;58.20
60287;DHT22;46141;52.382;5.270;2022-07-23T12:32:54;24.90;58.70
60287;DHT22;46141;52.382;5.270;2022-07-23T12:35:21;25.00;58.20
60287;DHT22;46141;52.382;5.270;2022-07-23T12:37:49;24.90;58.20
60287;DHT22;46141;52.382;5.270;2022-07-23T12:40:26;25.00;58.40
60287;DHT22;46141;52.382;5.270;2022-07-23T12:43:02;25.10;58.90
60287;DHT22;46141;52.382;5.270;2022-07-23T12:45:51;25.10;58.50
60287;DHT22;46141;52.382;5.270;2022-07-23T12:48:34;25.10;58.10
60287;DHT22;46141;52.382;5.270;2022-07-23T12:51:07;25.20;58.00
60287;DHT22;46141;52.382;5.270;2022-07-23T12:53:39;25.20;57.70
60287;DHT22;46141;52.382;5.270;2022-07-23T13:01:06;25.30;57.40
60287;DHT22;46141;52.382;5.270;2022-07-23T13:03:34;25.30;57.20
60287;DHT22;46141;52.382;5.270;2022-07-23T13:06:03;25.40;57.10
60287;DHT22;46141;52.382;5.270;2022-07-23T13:08:30;25.40;56.60
60287;DHT22;46141;52.382;5.270;2022-07-23T13:10:57;25.50;57.20
60287;DHT22;46141;52.382;5.270;2022-07-23T13:13:25;25.50;56.30
60287;DHT22;46141;52.382;5.270;2022-07-23T13:15:52;25.60;55.50
60287;DHT22;46141;52.382;5.270;2022-07-23T13:18:19;25.60;56.20
60287;DHT22;46141;52.382;5.270;2022-07-23T13:20:47;25.70;55.80
60287;DHT22;46141;52.382;5.270;2022-07-23T13:23:13;25.70;55.20
60287;DHT22;46141;52.382;5.270;2022-07-23T13:25:39;25.70;54.20
60287;DHT22;46141;52.382;5.270;2022-07-23T13:28:05;25.80;54.40
60287;DHT22;46141;52.382;5.270;2022-07-23T13:30:31;25.80;55.00
60287;DHT22;46141;52.382;5.270;2022-07-23T13:32:56;25.80;55.20
60287;DHT22;46141;52.382;5.270;2022-07-23T13:35:22;25.90;55.50
60287;DHT22;46141;52.382;5.270;2022-07-23T13:37:48;25.90;55.90
60287;DHT22;46141;52.382;5.270;2022-07-23T13:40:13;26.00;55.80
60287;DHT22;46141;52.382;5.270;2022-07-23T13:42:39;26.00;56.00
60287;DHT22;46141;52.382;5.270;2022-07-23T13:45:07;26.00;56.10
60287;DHT22;46141;52.382;5.270;2022-07-23T13:47:32;26.10;56.30
60287;DHT22;46141;52.382;5.270;2022-07-23T13:49:58;26.10;56.20
60287;DHT22;46141;52.382;5.270;2022-07-23T13:52:24;26.20;56.40
60287;DHT22;46141;52.382;5.270;2022-07-23T13:54:50;26.20;56.70
60287;DHT22;46141;52.382;5.270;2022-07-23T13:57:16;26.20;56.50
60287;DHT22;46141;52.382;5.270;2022-07-23T13:59:41;26.30;56.70
60287;DHT22;46141;52.382;5.270;2022-07-23T14:02:07;26.30;56.60
60287;DHT22;46141;52.382;5.270;2022-07-23T14:04:33;26.40;56.90
60287;DHT22;46141;52.382;5.270;2022-07-23T14:06:59;26.40;56.70
60287;DHT22;46141;52.382;5.270;2022-07-23T14:09:25;26.40;56.80
60287;DHT22;46141;52.382;5.270;2022-07-23T14:11:51;26.40;56.50
60287;DHT22;46141;52.382;5.270;2022-07-23T14:14:18;26.40;56.60
60287;DHT22;46141;52.382;5.270;2022-07-23T14:16:44;26.40;56.50
60287;DHT22;46141;52.382;5.270;2022-07-23T14:19:10;26.40;56.40
60287;DHT22;46141;52.382;5.270;2022-07-23T14:21:36;26.40;56.40
60287;DHT22;46141;52.382;5.270;2022-07-23T14:24:03;26.40;56.30
60287;DHT22;46141;52.382;5.270;2022-07-23T14:26:29;26.40;56.20
60287;DHT22;46141;52.382;5.270;2022-07-23T14:28:55;26.50;56.40
60287;DHT22;46141;52.382;5.270;2022-07-23T14:31:20;26.50;56.40
60287;DHT22;46141;52.382;5.270;2022-07-23T14:33:46;26.50;56.20
60287;DHT22;46141;52.382;5.270;2022-07-23T14:36:11;26.50;56.50
60287;DHT22;46141;52.382;5.270;2022-07-23T14:38:37;26.60;56.70
60287;DHT22;46141;52.382;5.270;2022-07-23T14:41:02;26.60;56.40
60287;DHT22;46141;52.382;5.270;2022-07-23T14:43:28;26.60;56.40
60287;DHT22;46141;52.382;5.270;2022-07-23T14:45:53;26.60;56.40
60287;DHT22;46141;52.382;5.270;2022-07-23T14:48:19;26.60;56.50
60287;DHT22;46141;52.382;5.270;2022-07-23T14:50:44;26.60;56.40
60287;DHT22;46141;52.382;5.270;2022-07-23T14:53:10;26.60;56.50
60287;DHT22;46141;52.382;5.270;2022-07-23T14:55:35;26.60;56.70
60287;DHT22;46141;52.382;5.270;2022-07-23T14:58:01;26.50;56.70
60287;DHT22;46141;52.382;5.270;2022-07-23T15:00:27;26.50;56.80
60287;DHT22;46141;52.382;5.270;2022-07-23T15:02:53;26.40;56.80
60287;DHT22;46141;52.382;5.270;2022-07-23T15:05:18;26.40;57.00
60287;DHT22;46141;52.382;5.270;2022-07-23T15:07:44;26.50;57.20
60287;DHT22;46141;52.382;5.270;2022-07-23T15:10:09;26.50;57.10
60287;DHT22;46141;52.382;5.270;2022-07-23T15:12:35;26.50;57.00
60287;DHT22;46141;52.382;5.270;2022-07-23T15:15:01;26.60;57.10
60287;DHT22;46141;52.382;5.270;2022-07-23T15:17:26;26.60;57.00
60287;DHT22;46141;52.382;5.270;2022-07-23T15:19:52;26.60;56.90
60287;DHT22;46141;52.382;5.270;2022-07-23T15:22:17;26.60;56.90
60287;DHT22;46141;52.382;5.270;2022-07-23T15:24:43;26.70;57.00
60287;DHT22;46141;52.382;5.270;2022-07-23T15:27:09;26.70;57.10
60287;DHT22;46141;52.382;5.270;2022-07-23T15:29:35;26.70;57.20
60287;DHT22;46141;52.382;5.270;2022-07-23T15:32:01;26.70;57.20
60287;DHT22;46141;52.382;5.270;2022-07-23T15:34:27;26.60;57.10
60287;DHT22;46141;52.382;5.270;2022-07-23T15:36:52;26.60;57.20
60287;DHT22;46141;52.382;5.270;2022-07-23T15:39:18;26.60;57.10
60287;DHT22;46141;52.382;5.270;2022-07-23T15:41:44;26.70;57.20
60287;DHT22;46141;52.382;5.270;2022-07-23T15:44:09;26.70;56.90
60287;DHT22;46141;52.382;5.270;2022-07-23T15:46:35;26.70;56.90
60287;DHT22;46141;52.382;5.270;2022-07-23T15:49:01;26.80;56.80
60287;DHT22;46141;52.382;5.270;2022-07-23T15:51:26;26.80;56.80
60287;DHT22;46141;52.382;5.270;2022-07-23T15:53:52;26.80;56.80
60287;DHT22;46141;52.382;5.270;2022-07-23T15:56:17;26.80;56.60
60287;DHT22;46141;52.382;5.270;2022-07-23T15:58:43;26.80;56.70
60287;DHT22;46141;52.382;5.270;2022-07-23T16:01:08;26.80;56.70
60287;DHT22;46141;52.382;5.270;2022-07-23T16:03:35;26.90;56.80
60287;DHT22;46141;52.382;5.270;2022-07-23T16:06:01;26.90;56.80
60287;DHT22;46141;52.382;5.270;2022-07-23T16:08:27;26.90;56.80
60287;DHT22;46141;52.382;5.270;2022-07-23T16:10:52;26.90;56.70
60287;DHT22;46141;52.382;5.270;2022-07-23T16:13:18;26.80;57.20
60287;DHT22;46141;52.382;5.270;2022-07-23T16:15:43;26.80;56.80
60287;DHT22;46141;52.382;5.270;2022-07-23T16:18:09;26.70;56.90
60287;DHT22;46141;52.382;5.270;2022-07-23T16:20:36;26.80;56.80
60287;DHT22;46141;52.382;5.270;2022-07-23T16:23:02;26.80;56.60
60287;DHT22;46141;52.382;5.270;2022-07-23T16:25:27;26.80;56.60
60287;DHT22;46141;52.382;5.270;2022-07-23T16:27:53;26.80;56.60
60287;DHT22;46141;52.382;5.270;2022-07-23T16:30:18;26.90;56.70
60287;DHT22;46141;52.382;5.270;2022-07-23T16:32:44;26.90;56.80
60287;DHT22;46141;52.382;5.270;2022-07-23T16:35:10;26.90;56.70
60287;DHT22;46141;52.382;5.270;2022-07-23T16:37:35;27.00;56.80
60287;DHT22;46141;52.382;5.270;2022-07-23T16:40:04;27.00;56.60
60287;DHT22;46141;52.382;5.270;2022-07-23T16:42:30;27.00;56.50
60287;DHT22;46141;52.382;5.270;2022-07-23T16:44:56;26.90;56.50
60287;DHT22;46141;52.382;5.270;2022-07-23T16:47:22;26.90;56.30
60287;DHT22;46141;52.382;5.270;2022-07-23T16:49:48;26.90;56.10
60287;DHT22;46141;52.382;5.270;2022-07-23T16:52:13;26.90;56.10
60287;DHT22;46141;52.382;5.270;2022-07-23T16:54:39;26.90;56.10
60287;DHT22;46141;52.382;5.270;2022-07-23T16:57:04;26.80;56.00
60287;DHT22;46141;52.382;5.270;2022-07-23T16:59:30;26.80;55.90
60287;DHT22;46141;52.382;5.270;2022-07-23T17:01:55;26.80;55.90
60287;DHT22;46141;52.382;5.270;2022-07-23T17:04:21;26.80;55.70
60287;DHT22;46141;52.382;5.270;2022-07-23T17:06:46;26.80;56.00
60287;DHT22;46141;52.382;5.270;2022-07-23T17:09:12;26.80;56.30
60287;DHT22;46141;52.382;5.270;2022-07-23T17:11:37;26.80;56.50
60287;DHT22;46141;52.382;5.270;2022-07-23T17:14:04;26.90;56.90
60287;DHT22;46141;52.382;5.270;2022-07-23T17:16:29;26.80;57.00
60287;DHT22;46141;52.382;5.270;2022-07-23T17:18:55;26.80;57.30
60287;DHT22;46141;52.382;5.270;2022-07-23T17:21:21;26.80;57.50
60287;DHT22;46141;52.382;5.270;2022-07-23T17:23:47;26.80;57.60
60287;DHT22;46141;52.382;5.270;2022-07-23T17:26:13;26.80;57.60
60287;DHT22;46141;52.382;5.270;2022-07-23T17:28:39;26.80;57.80
60287;DHT22;46141;52.382;5.270;2022-07-23T17:31:04;26.70;57.70
60287;DHT22;46141;52.382;5.270;2022-07-23T17:33:30;26.70;57.10
60287;DHT22;46141;52.382;5.270;2022-07-23T17:35:56;26.70;57.60
60287;DHT22;46141;52.382;5.270;2022-07-23T17:38:21;26.70;57.60
60287;DHT22;46141;52.382;5.270;2022-07-23T17:40:48;26.70;57.70
60287;DHT22;46141;52.382;5.270;2022-07-23T17:43:14;26.70;57.80
60287;DHT22;46141;52.382;5.270;2022-07-23T17:45:39;26.70;57.90
60287;DHT22;46141;52.382;5.270;2022-07-23T17:48:05;26.70;57.90
60287;DHT22;46141;52.382;5.270;2022-07-23T17:50:31;26.70;58.10
60287;DHT22;46141;52.382;5.270;2022-07-23T17:52:57;26.70;58.20
60287;DHT22;46141;52.382;5.270;2022-07-23T17:55:24;26.70;58.30
60287;DHT22;46141;52.382;5.270;2022-07-23T17:57:51;26.70;58.40
60287;DHT22;46141;52.382;5.270;2022-07-23T18:00:21;26.70;58.50
60287;DHT22;46141;52.382;5.270;2022-07-23T18:02:47;26.60;58.40
60287;DHT22;46141;52.382;5.270;2022-07-23T18:05:12;26.60;58.40
60287;DHT22;46141;52.382;5.270;2022-07-23T18:07:38;26.60;58.60
60287;DHT22;46141;52.382;5.270;2022-07-23T18:10:05;26.60;58.60
60287;DHT22;46141;52.382;5.270;2022-07-23T18:12:30;26.60;58.60
60287;DHT22;46141;52.382;5.270;2022-07-23T18:14:56;26.60;58.60
60287;DHT22;46141;52.382;5.270;2022-07-23T18:17:22;26.60;58.70
60287;DHT22;46141;52.382;5.270;2022-07-23T18:19:47;26.50;58.60
60287;DHT22;46141;52.382;5.270;2022-07-23T18:22:13;26.50;58.70
60287;DHT22;46141;52.382;5.270;2022-07-23T18:24:38;26.50;58.70
60287;DHT22;46141;52.382;5.270;2022-07-23T18:27:05;26.50;58.50
60287;DHT22;46141;52.382;5.270;2022-07-23T18:29:31;26.50;58.50
60287;DHT22;46141;52.382;5.270;2022-07-23T18:31:57;26.50;58.50
60287;DHT22;46141;52.382;5.270;2022-07-23T18:34:23;26.50;58.60
60287;DHT22;46141;52.382;5.270;2022-07-23T18:36:48;26.50;58.70
60287;DHT22;46141;52.382;5.270;2022-07-23T18:39:14;26.50;58.50
60287;DHT22;46141;52.382;5.270;2022-07-23T18:41:40;26.50;58.50
60287;DHT22;46141;52.382;5.270;2022-07-23T18:44:06;26.40;58.70
60287;DHT22;46141;52.382;5.270;2022-07-23T18:46:31;26.40;58.70
60287;DHT22;46141;52.382;5.270;2022-07-23T18:48:57;26.50;58.70
60287;DHT22;46141;52.382;5.270;2022-07-23T18:51:22;26.40;58.70
60287;DHT22;46141;52.382;5.270;2022-07-23T18:53:48;26.40;58.80
60287;DHT22;46141;52.382;5.270;2022-07-23T18:56:14;26.40;58.80
60287;DHT22;46141;52.382;5.270;2022-07-23T18:58:40;26.30;58.80
60287;DHT22;46141;52.382;5.270;2022-07-23T19:01:06;26.30;58.80
60287;DHT22;46141;52.382;5.270;2022-07-23T19:03:32;26.30;58.80
60287;DHT22;46141;52.382;5.270;2022-07-23T19:05:58;26.30;59.00
60287;DHT22;46141;52.382;5.270;2022-07-23T19:08:23;26.30;59.00
60287;DHT22;46141;52.382;5.270;2022-07-23T19:10:49;26.30;59.10
60287;DHT22;46141;52.382;5.270;2022-07-23T19:13:14;26.30;59.30
60287;DHT22;46141;52.382;5.270;2022-07-23T19:15:40;26.20;59.40
60287;DHT22;46141;52.382;5.270;2022-07-23T19:18:05;26.20;59.70
60287;DHT22;46141;52.382;5.270;2022-07-23T19:20:31;26.20;60.00
60287;DHT22;46141;52.382;5.270;2022-07-23T19:22:56;26.20;60.30